Time;durP1;ratioP1;P1;durP2;ratioP2;P2;SDS_P1;SDS_P2;PMS_P1;PMS_P2;Temp;Humidity;BMP_temperature;BMP_pressure;BME280_temperature;BME280_humidity;BME280_pressure;Samples;Min_cycle;Max_cycle;Signal;HPM_P1;HPM_P2
2024/02/16 04:47:54;;;;;;;20.98;10.15;;;;;;;7.44;68.10;100190.63;1197927;23;22094;-90
2024/02/16 04:50:20;;;;;;;21.63;9.95;;;;;;;7.34;67.68;100167.06;4981290;28;20103;-95
2024/02/16 04:52:46;;;;;;;16.98;10.20;;;;;;;7.45;68.01;100184.22;4967146;28;20088;-96
2024/02/16 04:55:11;;;;;;;16.42;9.68;;;;;;;7.56;67.87;100183.44;4967180;28;20030;-96
2024/02/16 04:57:37;;;;;;;16.08;10.23;;;;;;;7.55;67.33;100162.22;4967022;28;20021;-96
2024/02/16 05:00:03;;;;;;;14.68;10.30;;;;;;;7.75;65.62;100176.16;4967090;28;20036;-94
2024/02/16 05:02:29;;;;;;;17.13;10.20;;;;;;;7.71;64.52;100166.13;4967704;28;20061;-96
2024/02/16 05:04:54;;;;;;;15.23;9.52;;;;;;;7.72;63.87;100165.91;4967623;28;20132;-96
2024/02/16 05:07:23;;;;;;;12.30;8.82;;;;;;;7.78;63.44;100182.91;4967835;28;20029;-95
2024/02/16 05:09:55;;;;;;;45.90;37.00;;;;;;;7.74;62.50;100165.66;4968136;28;20087;-94
2024/02/16 05:12:21;;;;;;;12.98;9.43;;;;;;;7.78;62.15;100180.22;4968117;28;20117;-95
2024/02/16 05:14:49;;;;;;;16.30;8.82;;;;;;;7.76;63.38;100174.28;4966338;28;20030;-96
2024/02/16 05:17:14;;;;;;;19.08;11.40;;;;;;;7.97;65.33;100197.88;4999738;28;20484;-95
2024/02/16 05:19:40;;;;;;;15.98;10.48;;;;;;;7.68;66.82;100188.84;4966286;28;20125;-95
2024/02/16 05:22:09;;;;;;;18.30;10.57;;;;;;;7.51;67.69;100194.03;4966476;28;20046;-96
2024/02/16 05:24:35;;;;;;;24.40;10.88;;;;;;;7.50;67.61;100195.09;4967952;28;20056;-96
2024/02/16 05:27:00;;;;;;;18.35;10.18;;;;;;;7.61;67.95;100213.06;4967075;28;20054;-95
2024/02/16 05:29:26;;;;;;;16.27;10.30;;;;;;;7.53;67.44;100196.47;4968285;28;20030;-95
2024/02/16 05:31:52;;;;;;;19.35;10.40;;;;;;;7.63;67.59;100210.16;4961590;28;20041;-95
2024/02/16 05:34:18;;;;;;;20.05;10.50;;;;;;;7.54;67.56;100195.44;4949722;28;20092;-95
2024/02/16 05:36:44;;;;;;;19.38;10.82;;;;;;;7.52;67.56;100205.59;4949069;28;20034;-96
2024/02/16 05:39:20;;;;;;;20.05;12.10;;;;;;;7.60;67.03;100195.34;4951204;28;20061;-94
2024/02/16 05:41:46;;;;;;;23.40;15.15;;;;;;;7.73;66.87;100212.28;4970071;28;20389;-95
2024/02/16 05:44:14;;;;;;;20.67;11.88;;;;;;;7.74;66.65;100212.06;4966804;28;20388;-94
2024/02/16 05:46:40;;;;;;;22.33;12.13;;;;;;;7.88;66.38;100234.91;4966432;28;20514;-93
2024/02/16 05:49:06;;;;;;;21.27;10.77;;;;;;;7.90;65.82;100224.78;4983302;28;20050;-94
2024/02/16 05:52:17;;;;;;;18.50;11.57;;;;;;;7.80;65.45;100213.84;4982949;28;20467;-95
2024/02/16 05:54:44;;;;;;;17.63;10.70;;;;;;;7.87;65.81;100227.94;4985082;28;20041;-94
2024/02/16 05:57:10;;;;;;;23.05;10.18;;;;;;;7.75;66.01;100226.28;4982272;28;20336;-95
2024/02/16 05:59:36;;;;;;;20.10;11.15;;;;;;;7.88;66.14;100240.28;4981261;28;20129;-95
2024/02/16 06:02:01;;;;;;;17.13;10.73;;;;;;;7.82;65.95;100219.78;4983129;28;20416;-95
2024/02/16 06:04:27;;;;;;;17.63;10.43;;;;;;;7.99;65.29;100240.53;4990323;28;20030;-95
2024/02/16 06:06:56;;;;;;;21.08;11.90;;;;;;;7.93;65.61;100225.38;4966755;28;20037;-96
2024/02/16 06:09:24;;;;;;;23.60;11.93;;;;;;;8.09;65.91;100227.38;4967198;28;20109;-96
2024/02/16 06:11:53;;;;;;;24.10;11.55;;;;;;;8.05;65.56;100240.47;4967386;28;20420;-95
2024/02/16 06:14:19;;;;;;;21.15;11.80;;;;;;;8.04;65.63;100230.78;4985370;28;20029;-94
2024/02/16 06:16:47;;;;;;;21.55;13.07;;;;;;;8.11;65.15;100233.34;4984555;28;20035;-94
2024/02/16 06:19:29;;;;;;;21.20;12.52;;;;;;;8.24;64.67;100227.78;4967872;28;20021;-95
2024/02/16 06:21:54;;;;;;;20.90;11.70;;;;;;;8.38;63.75;100227.53;4968218;28;20034;-94
2024/02/16 06:24:23;;;;;;;17.73;11.02;;;;;;;8.54;62.31;100248.34;4951407;28;20069;-93
2024/02/16 06:26:50;;;;;;;22.58;11.20;;;;;;;8.58;59.72;100225.38;4967155;28;20028;-93
2024/02/16 06:29:15;;;;;;;14.27;8.13;;;;;;;8.74;58.83;100236.47;4967266;28;20025;-94
2024/02/16 06:31:41;;;;;;;13.68;8.20;;;;;;;8.88;58.50;100235.13;4966314;28;20041;-94
2024/02/16 06:34:08;;;;;;;10.63;7.75;;;;;;;8.66;57.76;100213.47;4966144;28;20026;-92
2024/02/16 06:36:39;;;;;;;18.58;9.15;;;;;;;8.85;58.49;100231.06;4966753;28;20025;-95
2024/02/16 06:39:09;;;;;;;16.67;8.85;;;;;;;8.88;58.64;100240.50;4969180;28;20026;-94
2024/02/16 06:41:49;;;;;;;16.67;9.23;;;;;;;8.82;57.76;100222.66;4971254;28;20116;-95
2024/02/16 06:47:25;;;;;;;12.30;6.78;;;;;;;9.00;55.92;100221.69;4970057;23;20141;-95
2024/02/16 06:50:12;;;;;;;11.85;7.55;;;;;;;9.26;55.51;100253.41;4991977;23;20026;-96
2024/02/16 06:52:49;;;;;;;12.63;7.95;;;;;;;9.13;56.45;100236.72;4982389;28;20085;-96
2024/02/16 06:59:47;;;;;;;20.23;9.43;;;;;;;9.26;56.69;100249.91;4917300;28;20038;-96
2024/02/16 07:02:23;;;;;;;17.05;8.95;;;;;;;9.12;57.34;100238.59;4983656;28;20026;-96
2024/02/16 07:18:56;;;;;;;23.95;10.73;;;;;;;9.14;60.41;100260.69;5737236;22;20065;-96
2024/02/16 07:24:45;;;;;;;19.83;9.82;;;;;;;8.66;60.63;100253.72;5006388;28;20070;-95
2024/02/16 07:27:30;;;;;;;;;;;;;;;;;;;;;
2024/02/16 07:30:03;;;;;;;23.58;11.05;;;;;;;8.89;58.11;100247.53;4997019;28;20037;-96
2024/02/16 07:32:45;;;;;;;;;;;;;;;;;;;;;
2024/02/16 07:35:46;;;;;;;15.00;7.93;;;;;;;9.17;56.69;100238.72;4982399;28;20036;-96
2024/02/16 07:41:50;;;;;;;19.17;9.80;;;;;;;9.40;56.69;100259.34;4887929;28;20055;-95
2024/02/16 07:47:13;;;;;;;22.58;10.93;;;;;;;9.35;57.13;100258.41;5143645;23;20054;-96
2024/02/16 07:50:09;;;;;;;21.10;12.05;;;;;;;9.29;57.59;100260.16;4963583;28;20018;-96
2024/02/16 07:52:54;;;;;;;17.58;10.00;;;;;;;9.51;56.88;100260.34;4930885;29;20244;-96
2024/02/16 07:58:33;;;;;;;25.30;11.48;;;;;;;9.54;56.47;100256.34;5530576;23;20054;-96
2024/02/16 08:01:02;;;;;;;13.07;8.43;;;;;;;9.87;55.03;100283.31;4968794;28;20532;-96
2024/02/16 08:09:50;;;;;;;;;;;;;;;;;;;;;
2024/02/16 08:12:34;;;;;;;;;;;;;;;;;;;;;
2024/02/16 08:15:03;;;;;;;11.93;7.40;;;;;;;9.91;53.05;100278.28;4933703;29;20504;-95
2024/02/16 08:17:32;;;;;;;14.70;7.88;;;;;;;10.01;52.35;100283.84;4939434;29;20055;-96
2024/02/16 08:20:07;;;;;;;;;;;;;;;;;;;;;
2024/02/16 08:22:36;;;;;;;9.27;5.95;;;;;;;10.23;51.14;100283.13;4930915;29;20114;-96
2024/02/16 08:25:17;;;;;;;13.88;6.22;;;;;;;10.23;51.28;100269.69;4925466;29;20035;-96
2024/02/16 08:27:49;;;;;;;18.52;7.63;;;;;;;10.15;52.42;100283.53;4912646;29;20039;-96
2024/02/16 08:30:14;;;;;;;;;;;;;;;10.32;52.53;100296.00;4912500;29;20031;-95
2024/02/16 08:32:40;;;;;;;14.82;8.68;;;;;;;10.30;52.79;100276.56;4925430;29;19918;-95
2024/02/16 08:35:10;;;;;;;13.27;8.18;;;;;;;10.44;52.24;100285.16;4937704;28;20125;-96
2024/02/16 08:37:35;;;;;;;15.30;8.32;;;;;;;10.37;52.48;100279.09;4983380;28;20038;-96
2024/02/16 08:40:53;;;;;;;12.82;7.45;;;;;;;10.52;51.58;100275.81;4970230;28;20164;-96
2024/02/16 08:43:18;;;;;;;12.48;7.30;;;;;;;10.47;51.23;100271.19;4989337;28;20033;-96
2024/02/16 08:45:56;;;;;;;13.27;7.55;;;;;;;10.56;50.51;100268.06;4973103;28;20026;-95
2024/02/16 08:48:22;;;;;;;20.10;13.63;;;;;;;10.47;51.17;100270.38;4987337;28;20096;-96
2024/02/16 08:50:58;;;;;;;13.48;8.18;;;;;;;10.60;50.83;100261.94;4988094;28;20022;-96
2024/02/16 08:53:23;;;;;;;13.23;8.07;;;;;;;10.75;50.37;100282.09;4972928;28;20060;-96
2024/02/16 08:55:51;;;;;;;15.70;7.20;;;;;;;10.77;50.00;100296.13;4973180;28;20029;-96
2024/02/16 08:58:33;;;;;;;10.48;6.43;;;;;;;10.85;49.31;100276.84;4971301;28;20038;-96
2024/02/16 09:07:50;;;;;;;11.75;6.80;;;;;;;10.97;49.06;100284.84;4968870;29;20033;-96
2024/02/16 09:10:28;;;;;;;10.40;6.85;;;;;;;11.11;49.59;100308.47;4926288;29;20031;-96
2024/02/16 09:12:56;;;;;;;11.00;6.50;;;;;;;10.72;48.92;100272.63;4933587;29;20027;-96
2024/02/16 09:15:29;;;;;;;11.60;5.93;;;;;;;10.72;48.91;100280.72;4916196;29;20023;-96
2024/02/16 09:17:56;;;;;;;12.23;5.57;;;;;;;10.72;48.83;100295.00;4951836;29;20071;-96
2024/02/16 09:21:03;;;;;;;11.70;5.53;;;;;;;10.70;48.69;100283.66;4927699;28;20172;-96
2024/02/16 09:37:54;;;;;;;11.75;6.10;;;;;;;11.09;46.88;100278.28;5031805;28;20038;-96
2024/02/16 09:46:33;;;;;;;12.55;5.85;;;;;;;11.30;46.76;100314.38;2459140;23;20399;-95
2024/02/16 09:55:22;;;;;;;8.63;5.20;;;;;;;11.13;45.27;100290.19;5046445;23;20061;-96
2024/02/16 09:57:48;;;;;;;7.75;5.15;;;;;;;11.05;46.31;100311.38;4944499;28;20050;-95
2024/02/16 10:00:14;;;;;;;12.52;6.43;;;;;;;11.17;46.62;100316.66;4940072;28;20057;-93
2024/02/16 10:02:43;;;;;;;7.57;5.18;;;;;;;10.96;46.21;100296.66;4939716;29;20027;-93
2024/02/16 10:05:19;;;;;;;20.85;9.65;;;;;;;11.17;46.23;100292.41;4925239;29;20038;-92
2024/02/16 10:07:45;;;;;;;7.78;5.10;;;;;;;11.28;46.02;100311.13;4921716;29;20034;-95
2024/02/16 10:10:56;;;;;;;12.35;5.78;;;;;;;11.28;46.37;100294.94;4928997;28;20026;-96
2024/02/16 10:13:27;;;;;;;9.25;5.57;;;;;;;11.30;46.53;100271.25;4912871;29;20039;-96
2024/02/16 10:15:52;;;;;;;9.48;6.22;;;;;;;11.12;46.41;100282.34;4904395;29;20484;-95
2024/02/16 10:18:23;;;;;;;9.63;5.32;;;;;;;11.06;46.83;100277.94;4883875;29;20132;-96
2024/02/16 10:23:32;;;;;;;8.60;5.82;;;;;;;11.37;46.02;100286.44;5495249;23;20122;-96
2024/02/16 10:26:26;;;;;;;7.55;5.18;;;;;;;11.25;46.47;100281.19;4973136;28;20132;-94
2024/02/16 10:28:58;;;;;;;8.32;5.28;;;;;;;11.10;45.55;100268.28;4941080;28;20125;-95
2024/02/16 10:53:03;;;;;;;8.43;5.88;;;;;;;10.81;47.31;100246.09;4970042;29;20291;-96
2024/02/16 10:55:36;;;;;;;14.98;8.07;;;;;;;10.92;47.04;100258.66;4935532;29;20104;-96
2024/02/16 10:58:09;;;;;;;13.18;7.68;;;;;;;10.94;47.64;100244.94;4935795;29;20115;-96
2024/02/16 11:00:56;;;;;;;11.48;6.68;;;;;;;10.94;46.62;100248.44;4912056;29;20035;-94
2024/02/16 11:03:45;;;;;;;35.38;16.15;;;;;;;11.00;45.75;100239.34;4929168;29;20497;-96
2024/02/16 11:06:17;;;;;;;8.95;5.93;;;;;;;11.05;45.71;100260.16;4857513;29;20045;-96
2024/02/16 11:08:47;;;;;;;12.32;6.15;;;;;;;10.83;45.76;100242.09;4856798;29;20071;-96
2024/02/16 11:15:02;;;;;;;;;;;;;;;;;;;;;
2024/02/16 11:31:38;;;;;;;11.50;6.30;;;;;;;10.66;46.76;100247.50;4976372;29;20054;-96
2024/02/16 11:48:20;;;;;;;9.70;5.30;;;;;;;10.98;45.83;100219.94;5281361;23;20069;-96
2024/02/16 11:50:49;;;;;;;13.27;6.00;;;;;;;11.13;45.38;100213.91;4975569;28;20034;-95
2024/02/16 11:53:34;;;;;;;;;;;;;;;;;;;;;
2024/02/16 11:56:00;;;;;;;9.77;5.60;;;;;;;11.11;45.45;100210.66;4989376;28;20118;-96
2024/02/16 11:58:46;;;;;;;17.73;6.75;;;;;;;11.32;44.97;100230.56;4967501;28;20054;-96
2024/02/16 12:01:25;;;;;;;7.68;5.18;;;;;;;11.24;44.97;100231.00;4983560;28;20089;-96
2024/02/16 12:04:09;;;;;;;9.05;5.82;;;;;;;11.15;44.93;100210.97;4971738;28;20041;-96
2024/02/16 12:07:17;;;;;;;;;;;;;;;;;;;;;
2024/02/16 12:09:59;;;;;;;8.05;5.53;;;;;;;11.09;45.10;100216.28;5002117;28;20105;-96
2024/02/16 12:12:26;;;;;;;10.93;6.18;;;;;;;11.15;45.95;100210.97;4966811;28;20053;-92
2024/02/16 12:15:01;;;;;;;16.15;8.23;;;;;;;11.20;45.56;100219.09;4966301;28;20034;-94
2024/02/16 12:17:30;;;;;;;12.23;5.93;;;;;;;11.33;44.84;100208.75;4985548;28;20029;-96
2024/02/16 12:19:59;;;;;;;9.15;5.75;;;;;;;11.41;44.56;100217.44;4969591;28;20101;-95
2024/02/16 12:22:25;;;;;;;7.95;5.13;;;;;;;11.32;44.75;100220.59;4968601;28;20030;-96
2024/02/16 12:24:51;;;;;;;11.70;6.15;;;;;;;11.21;44.32;100201.88;4969775;28;20026;-96
2024/02/16 12:27:17;;;;;;;7.70;5.13;;;;;;;11.32;44.16;100206.31;4968056;28;20034;-95
2024/02/16 12:29:42;;;;;;;11.30;5.88;;;;;;;11.36;44.29;100218.22;4966814;28;20026;-96
2024/02/16 12:32:11;;;;;;;8.20;4.95;;;;;;;11.27;44.99;100209.75;4968459;28;20076;-96
2024/02/16 12:34:39;;;;;;;10.57;5.75;;;;;;;11.11;44.68;100189.09;4968269;28;20030;-96
2024/02/16 13:03:22;;;;;;;7.10;5.05;;;;;;;11.80;43.85;100215.41;5025514;28;20055;-95
2024/02/16 13:05:48;;;;;;;9.35;5.22;;;;;;;11.77;43.73;100198.94;5001582;28;20053;-95
2024/02/16 13:08:14;;;;;;;7.32;4.55;;;;;;;11.51;43.55;100199.47;4969719;28;20101;-96
2024/02/16 13:10:42;;;;;;;15.68;5.10;;;;;;;11.61;44.01;100192.59;4971501;28;20022;-95
2024/02/16 13:13:08;;;;;;;8.20;5.15;;;;;;;11.72;43.73;100183.50;4970556;28;20052;-96
2024/02/16 13:15:36;;;;;;;9.45;6.13;;;;;;;11.93;43.27;100195.31;4969577;28;20030;-95
2024/02/16 13:18:12;;;;;;;9.40;5.43;;;;;;;11.84;43.59;100186.84;4968390;28;20026;-95
2024/02/16 13:20:38;;;;;;;9.38;5.32;;;;;;;11.62;43.30;100197.72;4970442;28;20021;-96
2024/02/16 13:23:09;;;;;;;7.18;5.05;;;;;;;11.47;44.69;100206.47;4968446;28;20038;-95
2024/02/16 13:25:44;;;;;;;10.02;6.47;;;;;;;11.62;43.77;100184.25;4969453;28;20501;-96
2024/02/16 13:28:16;;;;;;;7.03;5.05;;;;;;;11.57;44.47;100194.16;4973307;28;20044;-94
2024/02/16 13:30:48;;;;;;;8.50;5.85;;;;;;;11.57;44.26;100186.88;4968038;28;20468;-95
2024/02/16 13:33:16;;;;;;;8.02;5.22;;;;;;;11.68;44.36;100190.47;4969758;28;20036;-96
2024/02/16 13:35:42;;;;;;;12.30;5.95;;;;;;;11.72;44.78;100181.63;4975133;28;20026;-96
2024/02/16 13:55:28;;;;;;;9.88;5.00;;;;;;;11.74;45.03;100205.66;2231670;23;21275;-92
2024/02/16 13:57:56;;;;;;;8.80;5.60;;;;;;;11.48;45.13;100189.22;4977897;28;20501;-95
2024/02/16 14:00:21;;;;;;;10.35;5.57;;;;;;;11.47;44.85;100176.78;4974727;28;20161;-94
2024/02/16 14:02:47;;;;;;;9.30;5.53;;;;;;;11.55;44.82;100189.00;4962816;28;20022;-96
2024/02/16 14:05:13;;;;;;;7.68;5.65;;;;;;;11.40;45.46;100186.16;4968160;28;20057;-95
2024/02/16 14:07:39;;;;;;;9.73;5.65;;;;;;;11.43;45.60;100196.44;4967373;28;20503;-95
2024/02/16 14:10:15;;;;;;;9.98;5.90;;;;;;;11.26;45.71;100180.34;4970831;28;20046;-96
2024/02/16 14:12:45;;;;;;;8.73;5.82;;;;;;;11.23;46.10;100183.56;4982165;28;20026;-96
2024/02/16 14:15:15;;;;;;;9.32;5.80;;;;;;;11.04;46.72;100193.84;4980891;28;20030;-95
2024/02/16 14:17:42;;;;;;;8.13;5.78;;;;;;;11.20;46.43;100198.34;4966757;28;20026;-95
2024/02/16 14:20:08;;;;;;;8.93;5.57;;;;;;;11.30;46.52;100194.97;4981113;28;20113;-95
2024/02/16 14:22:33;;;;;;;8.93;5.63;;;;;;;11.41;46.52;100196.69;4979245;28;20326;-95
2024/02/16 14:24:59;;;;;;;9.75;5.75;;;;;;;11.32;46.42;100190.13;4978520;28;20057;-95
2024/02/16 14:27:25;;;;;;;8.63;6.07;;;;;;;11.35;46.28;100194.19;4964738;28;20028;-95
2024/02/16 14:29:51;;;;;;;10.55;6.25;;;;;;;11.40;46.47;100192.38;4981361;28;20018;-95
2024/02/16 14:32:17;;;;;;;9.68;5.95;;;;;;;11.36;46.13;100198.53;4980574;28;20444;-95
2024/02/16 14:34:45;;;;;;;9.40;6.15;;;;;;;11.26;46.47;100189.25;4968360;28;20049;-96
2024/02/16 14:40:36;;;;;;;9.93;6.90;;;;;;;11.23;46.44;100183.56;4971248;28;20073;-93
2024/02/16 14:43:07;;;;;;;22.48;8.35;;;;;;;11.36;46.67;100202.03;4961855;28;20412;-96
2024/02/16 14:45:33;;;;;;;10.75;7.10;;;;;;;11.43;46.67;100220.72;4979328;28;20412;-94
2024/02/16 14:47:58;;;;;;;13.48;7.40;;;;;;;11.23;46.65;100192.47;4962997;28;20034;-96
2024/02/16 14:50:30;;;;;;;11.02;6.82;;;;;;;11.00;47.36;100192.72;4962011;28;20173;-94
2024/02/16 15:11:01;;;;;;;20.98;10.82;;;;;;;11.09;47.58;100215.47;5278137;23;20114;-96
2024/02/16 15:13:30;;;;;;;20.55;10.80;;;;;;;11.06;47.10;100206.00;4967326;28;20026;-96
2024/02/16 15:15:58;;;;;;;9.90;5.90;;;;;;;10.82;47.42;100208.13;4967195;28;20034;-95
2024/02/16 15:18:36;;;;;;;;;;;;;;;;;;;;;
2024/02/16 15:21:39;;;;;;;11.75;6.60;;;;;;;10.80;47.78;100221.03;5005155;28;20117;-96
2024/02/16 15:24:32;;;;;;;11.32;5.97;;;;;;;10.60;48.01;100207.28;4983599;28;20151;-96
2024/02/16 15:27:14;;;;;;;;;;;;;;;;;;;;;
2024/02/16 15:29:52;;;;;;;9.50;6.45;;;;;;;10.63;48.04;100236.41;4874031;29;20045;-96
2024/02/16 15:32:24;;;;;;;10.52;6.40;;;;;;;10.44;47.99;100200.88;4840640;29;20034;-96
2024/02/16 15:35:10;;;;;;;;;;;;;;;;;;;;;
2024/02/16 15:38:00;;;;;;;28.27;9.38;;;;;;;10.62;48.31;100238.28;4861879;29;20072;-96
2024/02/16 15:40:27;;;;;;;11.80;5.90;;;;;;;10.47;48.43;100222.72;4852034;29;20038;-96
2024/02/16 15:43:05;;;;;;;9.55;5.53;;;;;;;10.43;48.68;100226.16;4850265;29;20232;-95
2024/02/16 15:45:50;;;;;;;;;;;;;;;;;;;;;
2024/02/16 15:48:21;;;;;;;32.72;6.68;;;;;;;10.34;49.06;100216.88;4872041;29;20123;-96
2024/02/16 16:00:17;;;;;;;;;;;;;;;;;;;;;
2024/02/16 16:12:17;;;;;;;18.73;10.15;;;;;;;10.17;50.31;100247.25;5001051;28;20066;-95
2024/02/16 16:14:44;;;;;;;14.40;8.85;;;;;;;9.89;50.74;100226.59;4984760;28;20030;-95
2024/02/16 16:51:31;;;;;;;31.15;15.85;;;;;;;9.17;54.55;100278.19;4971757;28;20047;-96
2024/02/16 16:53:56;;;;;;;20.88;11.65;;;;;;;9.04;54.30;100274.69;4878275;29;20044;-95
2024/02/16 16:56:22;;;;;;;17.83;10.10;;;;;;;9.17;54.54;100295.16;4887806;29;20037;-95
2024/02/16 16:58:48;;;;;;;19.05;10.45;;;;;;;9.10;54.63;100297.94;4872455;29;20075;-95
2024/02/16 17:01:20;;;;;;;46.55;25.55;;;;;;;8.81;55.27;100274.72;4886762;29;20028;-96
2024/02/16 17:03:49;;;;;;;70.57;38.80;;;;;;;8.95;55.41;100292.25;4871928;29;20115;-96
2024/02/16 17:06:15;;;;;;;24.35;13.85;;;;;;;8.92;55.64;100294.56;4869346;29;20123;-95
2024/02/16 17:08:41;;;;;;;27.17;15.38;;;;;;;8.92;55.80;100286.50;4869361;29;20084;-96
2024/02/16 17:11:09;;;;;;;26.00;13.27;;;;;;;8.99;56.38;100306.84;4869037;29;20028;-94
2024/02/16 17:13:35;;;;;;;24.55;12.20;;;;;;;8.84;56.17;100293.03;4884319;29;20028;-96
2024/02/16 17:16:00;;;;;;;21.95;12.13;;;;;;;8.74;56.29;100276.72;4884693;29;20032;-96
2024/02/16 17:18:29;;;;;;;26.05;12.27;;;;;;;8.77;56.91;100298.53;4885651;29;20682;-96
2024/02/16 17:20:55;;;;;;;21.63;10.80;;;;;;;8.64;56.36;100280.81;4874401;29;20016;-96
2024/02/16 17:23:21;;;;;;;18.13;9.88;;;;;;;8.88;55.97;100303.13;4879370;29;20034;-91
2024/02/16 17:25:48;;;;;;;17.92;10.73;;;;;;;8.79;56.17;100287.56;4878580;29;20043;-93
2024/02/16 17:28:14;;;;;;;15.55;9.15;;;;;;;8.82;56.00;100289.78;4876551;29;20036;-93
2024/02/16 17:30:42;;;;;;;13.20;8.95;;;;;;;8.85;55.95;100287.44;4862073;29;20024;-92
2024/02/16 17:33:08;;;;;;;15.25;9.00;;;;;;;8.83;56.49;100294.13;4920500;29;20024;-94
2024/02/16 17:35:34;;;;;;;18.13;9.90;;;;;;;8.82;56.53;100287.09;4952732;29;20109;-96
2024/02/16 17:38:00;;;;;;;12.48;7.95;;;;;;;9.00;56.39;100307.66;4904805;29;20045;-92
2024/02/16 17:40:25;;;;;;;22.50;10.90;;;;;;;8.90;56.70;100302.84;4920995;29;20016;-93
2024/02/16 17:42:51;;;;;;;17.80;10.90;;;;;;;8.81;56.98;100298.91;4929616;28;20041;-93
2024/02/16 17:45:18;;;;;;;15.88;9.18;;;;;;;8.81;56.60;100296.22;4916690;28;20135;-93
2024/02/16 17:47:43;;;;;;;16.88;7.72;;;;;;;8.77;56.63;100293.16;4912807;29;20060;-92
2024/02/16 17:50:09;;;;;;;18.20;10.20;;;;;;;8.94;56.54;100308.59;4915208;29;20043;-93
2024/02/16 17:52:34;;;;;;;18.23;11.65;;;;;;;8.86;57.03;100305.22;4923538;29;20496;-92
2024/02/16 17:55:00;;;;;;;17.15;10.48;;;;;;;8.86;56.83;100307.06;4939504;29;20023;-92
2024/02/16 17:57:28;;;;;;;18.55;10.63;;;;;;;8.92;57.14;100319.56;4924462;29;20030;-95
2024/02/16 17:59:53;;;;;;;27.63;14.80;;;;;;;8.78;57.10;100305.56;4941730;29;20046;-92
2024/02/16 18:02:19;;;;;;;29.63;15.48;;;;;;;8.83;57.38;100307.53;4923400;29;20027;-93
2024/02/16 18:04:45;;;;;;;25.20;12.90;;;;;;;8.88;57.32;100324.59;4925395;29;20178;-95
2024/02/16 18:07:17;;;;;;;31.10;12.90;;;;;;;8.79;56.91;100311.75;4925844;29;20506;-96
2024/02/16 18:09:52;;;;;;;;;;;;;;;8.90;57.39;100324.34;4928589;29;20044;-96
2024/02/16 18:12:23;;;;;;;21.23;11.25;;;;;;;8.66;57.58;100313.59;4942124;29;19981;-96
2024/02/16 18:14:52;;;;;;;23.50;12.77;;;;;;;8.64;57.48;100306.84;4944922;29;20059;-96
2024/02/16 18:17:19;;;;;;;21.23;12.13;;;;;;;8.83;57.28;100323.66;4941115;29;20066;-96
2024/02/16 18:19:45;;;;;;;25.85;11.93;;;;;;;8.78;57.22;100320.84;5103243;23;20039;-94
2024/02/16 18:22:26;;;;;;;19.48;9.70;;;;;;;8.80;57.74;100318.72;4968575;28;20053;-94
2024/02/16 18:24:51;;;;;;;15.13;8.90;;;;;;;8.74;57.45;100317.81;4954534;28;20038;-95
2024/02/16 18:27:30;;;;;;;15.07;9.32;;;;;;;8.92;57.20;100340.22;4953992;28;20049;-96
2024/02/16 18:30:03;;;;;;;19.70;10.98;;;;;;;8.78;57.83;100323.53;4968666;28;20046;-96
2024/02/16 18:32:30;;;;;;;35.47;16.13;;;;;;;8.61;58.70;100307.28;4971337;28;20066;-96
2024/02/16 18:34:59;;;;;;;28.38;14.55;;;;;;;8.79;58.40;100331.34;4967975;28;20597;-96
2024/02/16 18:37:46;;;;;;;20.10;10.77;;;;;;;8.73;58.64;100326.09;4967085;28;20034;-96
2024/02/16 18:40:21;;;;;;;16.52;9.27;;;;;;;8.93;58.36;100345.38;4971616;28;20030;-96
2024/02/16 18:42:57;;;;;;;53.03;29.90;;;;;;;8.78;58.84;100339.63;4953041;28;20066;-96
2024/02/16 18:45:33;;;;;;;18.92;11.48;;;;;;;8.71;58.86;100329.00;4968384;28;20118;-96
2024/02/16 18:48:05;;;;;;;37.60;20.38;;;;;;;8.72;59.33;100348.66;4983835;28;20026;-96
2024/02/16 18:50:31;;;;;;;28.45;15.23;;;;;;;8.60;59.41;100333.31;4965428;28;20035;-96
2024/02/16 18:52:57;;;;;;;64.18;34.20;;;;;;;8.61;59.44;100331.44;4966504;28;20030;-96
2024/02/16 18:55:24;;;;;;;23.35;13.32;;;;;;;8.70;58.84;100341.63;4963941;28;20112;-96
2024/02/16 18:57:52;;;;;;;30.83;16.48;;;;;;;8.68;59.49;100338.34;4964560;28;20460;-96
2024/02/16 19:00:21;;;;;;;18.92;11.25;;;;;;;8.71;59.38;100347.81;4949523;28;20030;-96
2024/02/16 19:02:54;;;;;;;18.00;8.90;;;;;;;8.65;59.28;100348.72;4977586;28;20038;-96
2024/02/16 19:05:20;;;;;;;12.35;8.52;;;;;;;8.58;59.72;100343.47;5001548;28;20010;-96
2024/02/16 19:07:49;;;;;;;24.75;11.85;;;;;;;8.53;59.60;100355.94;4984335;28;20117;-96
2024/02/16 19:10:15;;;;;;;18.20;10.35;;;;;;;8.52;59.87;100349.75;4984088;28;20021;-96
2024/02/16 19:12:41;;;;;;;19.33;10.25;;;;;;;8.52;60.08;100346.28;4985681;28;20072;-96
2024/02/16 19:15:07;;;;;;;16.20;9.60;;;;;;;8.58;59.44;100353.41;4985084;28;20026;-96
2024/02/16 19:17:34;;;;;;;21.85;9.57;;;;;;;8.57;59.88;100347.22;4949360;28;20034;-96
2024/02/16 19:20:04;;;;;;;16.15;8.80;;;;;;;8.56;60.44;100359.00;4934418;28;20061;-96
2024/02/16 19:22:31;;;;;;;14.60;8.48;;;;;;;8.64;59.63;100374.75;4932705;28;20551;-96
2024/02/16 19:24:59;;;;;;;28.65;17.38;;;;;;;8.54;59.91;100347.66;4948648;28;20410;-96
2024/02/16 19:27:26;;;;;;;27.90;14.52;;;;;;;8.63;59.98;100358.88;4948576;28;20023;-96
2024/02/16 19:29:56;;;;;;;27.67;10.52;;;;;;;8.78;59.58;100371.84;4949956;28;20054;-96
2024/02/16 19:32:31;;;;;;;23.23;12.20;;;;;;;8.64;59.49;100355.16;4958193;28;20030;-96
2024/02/16 19:35:04;;;;;;;20.83;11.23;;;;;;;8.72;60.01;100375.50;4956164;28;20046;-96
2024/02/16 19:37:36;;;;;;;35.05;16.52;;;;;;;8.54;59.63;100336.94;4957662;28;20037;-96
2024/02/16 19:50:21;;;;;;;35.20;16.88;;;;;;;8.45;60.96;100365.97;4971441;28;20055;-96
2024/02/16 19:52:50;;;;;;;15.63;9.35;;;;;;;8.21;61.58;100335.53;4957188;29;20058;-96
2024/02/16 20:09:05;;;;;;;13.65;9.23;;;;;;;8.35;60.97;100343.41;4940467;28;20115;-96
2024/02/16 20:11:31;;;;;;;13.32;7.78;;;;;;;8.30;60.89;100336.06;4892732;29;20418;-96
2024/02/16 20:13:57;;;;;;;14.27;7.90;;;;;;;8.29;61.06;100337.91;4893574;29;20043;-96
2024/02/16 20:16:25;;;;;;;13.20;8.00;;;;;;;8.23;61.16;100332.63;4892324;29;20058;-96
2024/02/16 20:18:51;;;;;;;13.60;8.25;;;;;;;8.30;61.75;100346.78;4892658;29;20024;-96
2024/02/16 20:21:19;;;;;;;13.60;9.35;;;;;;;8.11;62.11;100335.28;4894383;29;20028;-96
2024/02/16 20:23:51;;;;;;;15.00;8.52;;;;;;;8.13;61.94;100343.91;4893636;29;20023;-96
2024/02/16 20:26:26;;;;;;;11.87;8.43;;;;;;;8.15;61.84;100338.31;4895289;29;20114;-96
2024/02/16 20:58:30;;;;;;;16.02;9.25;;;;;;;7.87;62.27;100374.59;5292740;23;20295;-91
2024/02/16 21:00:58;;;;;;;14.75;8.95;;;;;;;7.73;62.07;100360.53;4966875;28;20038;-94
2024/02/16 21:03:23;;;;;;;13.73;8.48;;;;;;;7.73;62.36;100373.94;4975606;28;20034;-95
2024/02/16 21:05:51;;;;;;;19.10;8.00;;;;;;;7.63;62.67;100369.09;4952926;28;20491;-96
2024/02/16 21:08:17;;;;;;;13.50;8.60;;;;;;;7.60;62.82;100361.53;4957031;28;20038;-96
2024/02/16 21:10:43;;;;;;;14.63;8.90;;;;;;;7.75;62.82;100382.56;4930363;28;20110;-96
2024/02/16 21:13:09;;;;;;;15.25;8.98;;;;;;;7.76;62.78;100384.22;4930246;28;20086;-96
2024/02/16 21:15:37;;;;;;;15.02;9.25;;;;;;;7.56;63.27;100362.19;4928976;28;20027;-96
2024/02/16 21:18:05;;;;;;;15.85;9.63;;;;;;;7.62;63.37;100363.97;4929696;28;20027;-96
2024/02/16 21:20:31;;;;;;;22.05;11.95;;;;;;;7.75;62.95;100365.69;4928961;28;20027;-96
2024/02/16 21:22:57;;;;;;;24.40;12.05;;;;;;;7.75;63.44;100374.53;4929217;28;20050;-96
2024/02/16 21:25:23;;;;;;;19.60;12.00;;;;;;;7.87;63.50;100383.47;4928098;28;20023;-96
2024/02/16 21:27:48;;;;;;;26.90;12.45;;;;;;;7.67;63.90;100372.16;4929533;28;20030;-96
2024/02/16 21:30:17;;;;;;;25.77;12.07;;;;;;;7.57;64.36;100366.50;4929549;28;20015;-96
2024/02/16 21:32:43;;;;;;;23.52;11.80;;;;;;;7.62;64.54;100370.16;4929598;28;20050;-96
2024/02/16 21:35:09;;;;;;;21.73;12.13;;;;;;;7.54;64.38;100359.72;4928536;28;20030;-96
2024/02/16 21:37:38;;;;;;;22.23;13.07;;;;;;;7.49;64.79;100370.28;4929097;28;20019;-96
2024/02/16 21:40:09;;;;;;;24.92;14.82;;;;;;;7.28;65.54;100379.59;4929365;28;20026;-96
2024/02/16 21:42:34;;;;;;;29.77;13.85;;;;;;;7.23;65.67;100379.44;4930764;28;20010;-96